createdAt,value
2018-03-20T00:00:22.966Z,799.26
2018-03-20T00:01:22.972Z,799.29
2018-03-20T00:02:22.979Z,799.26
2018-03-20T00:03:22.979Z,799.28
2018-03-20T00:04:22.981Z,799.26
2018-03-20T00:05:22.984Z,799.25
2018-03-20T00:06:22.980Z,799.26
2018-03-20T00:07:22.988Z,799.31
2018-03-20T00:08:22.992Z,799.26
2018-03-20T00:09:22.988Z,799.26
2018-03-20T00:10:22.998Z,799.22
2018-03-20T00:11:23.000Z,799.25
2018-03-20T00:12:22.995Z,799.25
2018-03-20T00:13:23.006Z,799.23
2018-03-20T00:14:23.001Z,799.23
2018-03-20T00:15:23.008Z,799.23
2018-03-20T00:16:23.012Z,799.24
2018-03-20T00:17:23.009Z,799.20
2018-03-20T00:18:23.012Z,799.25
2018-03-20T00:19:23.020Z,799.26
2018-03-20T00:20:23.023Z,799.27
2018-03-20T00:21:23.025Z,799.21
2018-03-20T00:22:23.022Z,799.28
2018-03-20T00:23:23.029Z,799.26
2018-03-20T00:24:23.026Z,799.26
2018-03-20T00:25:23.029Z,799.27
2018-03-20T00:26:23.037Z,799.30
2018-03-20T00:27:23.033Z,799.28
2018-03-20T00:28:23.041Z,799.28
2018-03-20T00:29:23.039Z,799.31
2018-03-20T00:30:23.050Z,799.33
2018-03-20T00:31:23.049Z,799.31
2018-03-20T00:32:23.043Z,799.37
2018-03-20T00:33:23.053Z,799.34
2018-03-20T00:34:23.047Z,799.34
2018-03-20T00:35:23.056Z,799.33
2018-03-20T00:36:23.057Z,799.36
2018-03-20T00:37:23.055Z,799.35
2018-03-20T00:38:23.062Z,799.38
2018-03-20T00:39:23.064Z,799.37
2018-03-20T00:40:23.064Z,799.37
2018-03-20T00:41:23.063Z,799.38
2018-03-20T00:42:23.065Z,799.39
2018-03-20T00:43:23.067Z,799.35
2018-03-20T00:44:23.073Z,799.38
2018-03-20T00:45:23.079Z,799.34
2018-03-20T00:46:23.077Z,799.38
2018-03-20T00:47:23.082Z,799.37
2018-03-20T00:48:23.077Z,799.35
2018-03-20T00:49:23.082Z,799.36
2018-03-20T00:50:23.088Z,799.37
2018-03-20T00:51:23.090Z,799.37
2018-03-20T00:52:23.086Z,799.38
2018-03-20T00:53:23.093Z,799.41
2018-03-20T00:54:23.090Z,799.39
2018-03-20T00:55:23.096Z,799.41
2018-03-20T00:56:23.094Z,799.39
2018-03-20T00:57:23.095Z,799.42
2018-03-20T00:58:23.099Z,799.35
2018-03-20T00:59:23.101Z,799.34
2018-03-20T01:00:23.108Z,799.39
2018-03-20T01:01:23.111Z,799.37
2018-03-20T01:02:23.111Z,799.34
2018-03-20T01:03:23.114Z,799.37
2018-03-20T01:04:23.111Z,799.34
2018-03-20T01:05:23.119Z,799.35
2018-03-20T01:06:23.121Z,799.34
2018-03-20T01:07:23.117Z,799.35
2018-03-20T01:08:23.120Z,799.35
2018-03-20T01:09:23.133Z,799.33
2018-03-20T01:10:23.130Z,799.37
2018-03-20T01:11:23.123Z,799.38
2018-03-20T01:12:23.134Z,799.33
2018-03-20T01:13:23.137Z,799.37
2018-03-20T01:14:23.138Z,799.36
2018-03-20T01:15:23.141Z,799.33
2018-03-20T01:16:23.136Z,799.30
2018-03-20T01:17:23.144Z,799.28
2018-03-20T01:18:23.140Z,799.33
2018-03-20T01:19:23.147Z,799.29
2018-03-20T01:20:23.150Z,799.28
2018-03-20T01:21:23.153Z,799.27
2018-03-20T01:22:23.204Z,799.29
2018-03-20T01:23:23.152Z,799.31
2018-03-20T01:24:23.152Z,799.28
2018-03-20T01:25:23.160Z,799.27
2018-03-20T01:26:23.158Z,799.30
2018-03-20T01:27:23.160Z,799.32
2018-03-20T01:28:23.166Z,799.29
2018-03-20T01:29:23.171Z,799.33
2018-03-20T01:30:23.171Z,799.31
2018-03-20T01:31:23.168Z,799.28
2018-03-20T01:32:23.172Z,799.32
2018-03-20T01:33:23.174Z,799.31
2018-03-20T01:34:23.180Z,799.32
2018-03-20T01:35:23.184Z,799.29
2018-03-20T01:36:23.184Z,799.28
2018-03-20T01:37:23.188Z,799.28
2018-03-20T01:38:23.182Z,799.29
2018-03-20T01:39:23.192Z,799.27
2018-03-20T01:40:23.193Z,799.26
2018-03-20T01:41:23.189Z,799.29
2018-03-20T01:42:23.197Z,799.28
2018-03-20T01:43:23.192Z,799.25
2018-03-20T01:44:23.196Z,799.30
2018-03-20T01:45:23.206Z,799.28
2018-03-20T01:46:23.204Z,799.28
2018-03-20T01:47:23.208Z,799.25
2018-03-20T01:48:23.208Z,799.29
2018-03-20T01:49:23.211Z,799.26
2018-03-20T01:50:23.214Z,799.22
2018-03-20T01:51:23.209Z,799.26
2018-03-20T01:52:23.217Z,799.23
2018-03-20T01:53:23.214Z,799.23
2018-03-20T01:54:23.224Z,799.24
2018-03-20T01:55:23.223Z,799.24
2018-03-20T01:56:23.220Z,799.24
2018-03-20T01:57:23.231Z,799.24
2018-03-20T01:58:23.224Z,799.23
2018-03-20T01:59:23.233Z,799.24
2018-03-20T02:00:23.235Z,799.22
2018-03-20T02:01:23.238Z,799.23
2018-03-20T02:02:23.240Z,799.28
2018-03-20T02:03:23.240Z,799.24
2018-03-20T02:04:23.238Z,799.21
2018-03-20T02:05:23.242Z,799.25
2018-03-20T02:06:23.248Z,799.24
2018-03-20T02:07:23.243Z,799.24
2018-03-20T02:08:23.279Z,799.23
2018-03-20T02:09:23.252Z,799.23
2018-03-20T02:10:23.249Z,799.21
2018-03-20T02:11:23.258Z,799.20
2018-03-20T02:12:23.254Z,799.17
2018-03-20T02:13:23.256Z,799.16
2018-03-20T02:14:23.262Z,799.19
2018-03-20T02:15:23.264Z,799.19
2018-03-20T02:16:23.260Z,799.19
2018-03-20T02:17:23.263Z,799.21
2018-03-20T02:18:23.266Z,799.20
2018-03-20T02:19:23.267Z,799.19
2018-03-20T02:20:23.276Z,799.16
2018-03-20T02:21:23.277Z,799.16
2018-03-20T02:22:23.278Z,799.16
2018-03-20T02:23:23.280Z,799.13
2018-03-20T02:24:23.277Z,799.16
2018-03-20T02:25:23.276Z,799.17
2018-03-20T02:26:23.287Z,799.16
2018-03-20T02:27:23.287Z,799.19
2018-03-20T02:28:23.284Z,799.16
2018-03-20T02:29:23.285Z,799.19
2018-03-20T02:30:23.293Z,799.19
2018-03-20T02:31:23.290Z,799.17
2018-03-20T02:32:23.291Z,799.21
2018-03-20T02:33:23.301Z,799.23
2018-03-20T02:34:23.294Z,799.21
2018-03-20T02:35:23.301Z,799.18
2018-03-20T02:36:23.316Z,799.22
2018-03-20T02:37:23.305Z,799.22
2018-03-20T02:38:23.303Z,799.23
2018-03-20T02:39:23.305Z,799.19
2018-03-20T02:40:23.309Z,799.22
2018-03-20T02:41:23.306Z,799.19
2018-03-20T02:42:23.314Z,799.18
2018-03-20T02:43:23.315Z,799.17
2018-03-20T02:44:23.310Z,799.22
2018-03-20T02:45:23.316Z,799.18
2018-03-20T02:46:23.317Z,799.18
2018-03-20T02:47:23.321Z,799.20
2018-03-20T02:48:23.324Z,799.22
2018-03-20T02:49:23.320Z,799.19
2018-03-20T02:50:23.321Z,799.21
2018-03-20T02:51:23.330Z,799.25
2018-03-20T02:52:23.327Z,799.22
2018-03-20T02:53:23.363Z,799.20
2018-03-20T02:54:23.337Z,799.20
2018-03-20T02:55:23.351Z,799.20
2018-03-20T02:56:23.339Z,799.22
2018-03-20T02:57:23.339Z,799.22
2018-03-20T02:58:23.338Z,799.20
2018-03-20T02:59:23.338Z,799.20
2018-03-20T03:00:23.347Z,799.21
2018-03-20T03:01:23.339Z,799.19
2018-03-20T03:02:23.341Z,799.19
2018-03-20T03:03:23.348Z,799.22
2018-03-20T03:04:23.380Z,799.23
2018-03-20T03:05:23.345Z,799.19
2018-03-20T03:06:23.349Z,799.19
2018-03-20T03:07:23.349Z,799.21
2018-03-20T03:08:23.361Z,799.22
2018-03-20T03:09:23.358Z,799.21
2018-03-20T03:10:23.354Z,799.24
2018-03-20T03:11:23.362Z,799.25
2018-03-20T03:12:23.373Z,799.25
2018-03-20T03:13:23.364Z,799.30
2018-03-20T03:14:23.362Z,799.30
2018-03-20T03:15:23.368Z,799.29
2018-03-20T03:16:23.364Z,799.28
2018-03-20T03:17:23.367Z,799.31
2018-03-20T03:18:23.378Z,799.31
2018-03-20T03:19:23.370Z,799.32
2018-03-20T03:20:23.376Z,799.30
2018-03-20T03:21:23.381Z,799.32
2018-03-20T03:22:23.376Z,799.30
2018-03-20T03:23:23.385Z,799.30
2018-03-20T03:24:23.379Z,799.30
2018-03-20T03:25:23.383Z,799.28
2018-03-20T03:26:23.384Z,799.26
2018-03-20T03:27:23.386Z,799.29
2018-03-20T03:28:23.393Z,799.28
2018-03-20T03:29:23.395Z,799.29
2018-03-20T03:30:23.404Z,799.29
2018-03-20T03:31:23.394Z,799.28
2018-03-20T03:32:23.401Z,799.29
2018-03-20T03:33:23.404Z,799.28
2018-03-20T03:34:23.400Z,799.26
2018-03-20T03:35:23.404Z,799.23
2018-03-20T03:36:23.406Z,799.33
2018-03-20T03:37:23.412Z,799.26
2018-03-20T03:38:23.409Z,799.34
2018-03-20T03:39:23.424Z,799.33
2018-03-20T03:40:23.420Z,799.33
2018-03-20T03:41:23.415Z,799.34
2018-03-20T03:42:23.423Z,799.31
2018-03-20T03:43:23.424Z,799.33
2018-03-20T03:44:23.427Z,799.32
2018-03-20T03:45:23.426Z,799.33
2018-03-20T03:46:23.427Z,799.34
2018-03-20T03:47:23.427Z,799.33
2018-03-20T03:48:23.436Z,799.38
2018-03-20T03:49:23.437Z,799.33
2018-03-20T03:50:23.435Z,799.34
2018-03-20T03:51:23.436Z,799.33
2018-03-20T03:52:23.439Z,799.36
2018-03-20T03:53:23.440Z,799.35
2018-03-20T03:54:23.449Z,799.37
2018-03-20T03:55:23.452Z,799.35
2018-03-20T03:56:23.449Z,799.37
2018-03-20T03:57:23.451Z,799.38
2018-03-20T03:58:23.452Z,799.36
2018-03-20T03:59:23.455Z,799.38
2018-03-20T04:00:23.461Z,799.41
2018-03-20T04:01:23.517Z,799.36
2018-03-20T04:02:23.462Z,799.40
2018-03-20T04:03:23.462Z,799.36
2018-03-20T04:04:23.466Z,799.38
2018-03-20T04:05:23.468Z,799.38
2018-03-20T04:06:23.470Z,799.33
2018-03-20T04:07:23.472Z,799.35
2018-03-20T04:08:23.473Z,799.37
2018-03-20T04:09:23.482Z,799.34
2018-03-20T04:10:23.484Z,799.39
2018-03-20T04:11:23.481Z,799.38
2018-03-20T04:12:23.481Z,799.39
2018-03-20T04:13:23.491Z,799.40
2018-03-20T04:14:23.491Z,799.36
2018-03-20T04:15:23.488Z,799.36
2018-03-20T04:16:23.491Z,799.40
2018-03-20T04:17:23.499Z,799.39
2018-03-20T04:18:23.503Z,799.40
2018-03-20T04:19:23.498Z,799.43
2018-03-20T04:20:23.506Z,799.39
2018-03-20T04:21:23.510Z,799.43
2018-03-20T04:22:23.510Z,799.44
2018-03-20T04:23:23.512Z,799.43
2018-03-20T04:24:23.514Z,799.43
2018-03-20T04:25:23.516Z,799.43
2018-03-20T04:26:23.518Z,799.45
2018-03-20T04:27:23.520Z,799.48
2018-03-20T04:28:23.522Z,799.50
2018-03-20T04:29:23.519Z,799.48
2018-03-20T04:30:23.528Z,799.51
2018-03-20T04:31:23.524Z,799.49
2018-03-20T04:32:23.531Z,799.51
2018-03-20T04:33:23.531Z,799.52
2018-03-20T04:34:23.533Z,799.56
2018-03-20T04:35:23.537Z,799.48
2018-03-20T04:36:23.538Z,799.56
2018-03-20T04:37:23.542Z,799.52
2018-03-20T04:38:23.538Z,799.53
2018-03-20T04:39:23.539Z,799.52
2018-03-20T04:40:23.547Z,799.53
2018-03-20T04:41:23.544Z,799.54
2018-03-20T04:42:23.548Z,799.51
2018-03-20T04:43:23.547Z,799.53
2018-03-20T04:44:23.555Z,799.55
2018-03-20T04:45:23.560Z,799.51
2018-03-20T04:46:23.554Z,799.50
2018-03-20T04:47:23.563Z,799.51
2018-03-20T04:48:23.560Z,799.52
2018-03-20T04:49:23.559Z,799.51
2018-03-20T04:50:23.568Z,799.54
2018-03-20T04:51:23.562Z,799.51
2018-03-20T04:52:23.568Z,799.52
2018-03-20T04:53:23.578Z,799.52
2018-03-20T04:54:23.573Z,799.51
2018-03-20T04:55:23.572Z,799.50
2018-03-20T04:56:23.577Z,799.54
2018-03-20T04:57:23.586Z,799.55
2018-03-20T04:58:23.585Z,799.51
2018-03-20T04:59:23.584Z,799.55
2018-03-20T05:00:23.578Z,799.51
2018-03-20T05:01:23.586Z,799.52
2018-03-20T05:02:23.601Z,799.54
2018-03-20T05:03:23.586Z,799.56
2018-03-20T05:04:23.585Z,799.55
2018-03-20T05:05:23.596Z,799.57
2018-03-20T05:06:23.590Z,799.57
2018-03-20T05:07:23.591Z,799.57
2018-03-20T05:08:23.598Z,799.59
2018-03-20T05:09:23.594Z,799.57
2018-03-20T05:10:23.597Z,799.58
2018-03-20T05:11:23.598Z,799.60
2018-03-20T05:12:23.610Z,799.58
2018-03-20T05:13:23.603Z,799.60
2018-03-20T05:14:23.604Z,799.58
2018-03-20T05:15:23.611Z,799.63
2018-03-20T05:16:23.608Z,799.63
2018-03-20T05:17:23.617Z,799.63
2018-03-20T05:18:23.617Z,799.65
2018-03-20T05:19:23.613Z,799.63
2018-03-20T05:20:23.622Z,799.67
2018-03-20T05:21:23.617Z,799.70
2018-03-20T05:22:23.628Z,799.69
2018-03-20T05:23:23.622Z,799.71
2018-03-20T05:24:23.622Z,799.72
2018-03-20T05:25:23.627Z,799.69
2018-03-20T05:26:23.631Z,799.68
2018-03-20T05:27:23.630Z,799.72
2018-03-20T05:28:23.637Z,799.71
2018-03-20T05:29:23.637Z,799.74
2018-03-20T05:30:23.634Z,799.77
2018-03-20T05:31:23.636Z,799.73
2018-03-20T05:32:23.637Z,799.78
2018-03-20T05:33:23.639Z,799.79
2018-03-20T05:34:23.643Z,799.76
2018-03-20T05:35:23.648Z,799.78
2018-03-20T05:36:23.653Z,799.76
2018-03-20T05:37:23.652Z,799.80
2018-03-20T05:38:23.651Z,799.82
2018-03-20T05:39:23.648Z,799.81
2018-03-20T05:40:23.654Z,799.87
2018-03-20T05:41:23.657Z,799.84
2018-03-20T05:42:23.659Z,799.87
2018-03-20T05:43:23.654Z,799.85
2018-03-20T05:44:23.655Z,799.86
2018-03-20T05:45:23.664Z,799.85
2018-03-20T05:46:23.659Z,799.83
2018-03-20T05:47:23.660Z,799.86
2018-03-20T05:48:23.662Z,799.87
2018-03-20T05:49:23.664Z,799.90
2018-03-20T05:50:23.669Z,799.89
2018-03-20T05:51:23.671Z,799.90
2018-03-20T05:52:23.674Z,799.90
2018-03-20T05:53:23.674Z,799.92
2018-03-20T05:54:23.672Z,799.92
2018-03-20T05:55:23.677Z,799.92
2018-03-20T05:56:23.672Z,799.97
2018-03-20T05:57:23.675Z,799.96
2018-03-20T05:58:23.682Z,799.96
2018-03-20T05:59:23.686Z,799.97
2018-03-20T06:00:23.683Z,799.99
2018-03-20T06:01:23.681Z,800.00
2018-03-20T06:02:23.683Z,799.98
2018-03-20T06:03:23.687Z,799.96
2018-03-20T06:04:23.684Z,799.97
2018-03-20T06:05:23.691Z,799.98
2018-03-20T06:06:23.687Z,800.03
2018-03-20T06:07:23.691Z,800.02
2018-03-20T06:08:23.688Z,800.01
2018-03-20T06:09:23.695Z,800.05
2018-03-20T06:10:23.692Z,800.08
2018-03-20T06:11:23.697Z,800.06
2018-03-20T06:12:23.697Z,800.07
2018-03-20T06:13:23.699Z,800.05
2018-03-20T06:14:23.697Z,800.05
2018-03-20T06:15:23.698Z,800.05
2018-03-20T06:16:23.700Z,800.06
2018-03-20T06:17:23.702Z,800.14
2018-03-20T06:18:23.706Z,800.09
2018-03-20T06:19:23.709Z,800.13
2018-03-20T06:20:23.710Z,800.13
2018-03-20T06:21:23.711Z,800.14
2018-03-20T06:22:23.711Z,800.11
2018-03-20T06:23:23.707Z,800.15
2018-03-20T06:24:23.709Z,800.18
2018-03-20T06:25:23.714Z,800.18
2018-03-20T06:26:23.719Z,800.22
2018-03-20T06:27:23.720Z,800.20
2018-03-20T06:28:23.712Z,800.17
2018-03-20T06:29:23.720Z,800.19
2018-03-20T06:30:23.721Z,800.16
2018-03-20T06:31:23.716Z,800.24
2018-03-20T06:32:23.719Z,800.23
2018-03-20T06:33:23.725Z,800.24
2018-03-20T06:34:23.729Z,800.26
2018-03-20T06:35:23.734Z,800.29
2018-03-20T06:36:23.733Z,800.26
2018-03-20T06:37:23.732Z,800.29
2018-03-20T06:38:23.733Z,800.31
2018-03-20T06:39:23.734Z,800.36
2018-03-20T06:40:23.735Z,800.32
2018-03-20T06:41:23.730Z,800.26
2018-03-20T06:42:23.733Z,800.30
2018-03-20T06:43:23.734Z,800.28
2018-03-20T06:44:23.735Z,800.35
2018-03-20T06:45:23.742Z,800.33
2018-03-20T06:46:23.743Z,800.33
2018-03-20T06:47:23.739Z,800.35
2018-03-20T06:48:23.747Z,800.40
2018-03-20T06:49:23.749Z,800.40
2018-03-20T06:50:23.750Z,800.45
2018-03-20T06:51:23.745Z,800.42
2018-03-20T06:52:23.745Z,800.45
2018-03-20T06:53:23.746Z,800.45
2018-03-20T06:54:23.755Z,800.46
2018-03-20T06:55:23.749Z,800.42
2018-03-20T06:56:23.756Z,800.41
2018-03-20T06:57:23.753Z,800.42
2018-03-20T06:58:23.761Z,800.46
2018-03-20T06:59:23.803Z,800.39
2018-03-20T07:00:23.762Z,800.43
2018-03-20T07:01:23.769Z,800.43
2018-03-20T07:02:23.767Z,800.44
2018-03-20T07:03:23.762Z,800.39
2018-03-20T07:04:23.764Z,800.44
2018-03-20T07:05:23.770Z,800.44
2018-03-20T07:06:23.774Z,800.43
2018-03-20T07:07:23.769Z,800.47
2018-03-20T07:08:23.779Z,800.45
2018-03-20T07:09:23.780Z,800.46
2018-03-20T07:10:23.780Z,800.43
2018-03-20T07:11:23.782Z,800.42
2018-03-20T07:12:23.778Z,800.47
2018-03-20T07:13:23.780Z,800.48
2018-03-20T07:14:23.789Z,800.43
2018-03-20T07:15:23.789Z,800.47
2018-03-20T07:16:23.792Z,800.47
2018-03-20T07:17:23.788Z,800.46
2018-03-20T07:18:23.795Z,800.47
2018-03-20T07:19:23.792Z,800.48
2018-03-20T07:20:23.793Z,800.52
2018-03-20T07:21:23.800Z,800.51
2018-03-20T07:22:23.802Z,800.54
2018-03-20T07:23:23.807Z,800.50
2018-03-20T07:24:23.805Z,800.57
2018-03-20T07:25:23.807Z,800.58
2018-03-20T07:26:23.804Z,800.63
2018-03-20T07:27:23.812Z,800.62
2018-03-20T07:28:23.879Z,800.59
2018-03-20T07:29:23.809Z,800.56
2018-03-20T07:30:23.812Z,800.62
2018-03-20T07:31:23.818Z,800.65
2018-03-20T07:32:23.822Z,800.67
2018-03-20T07:33:23.823Z,800.60
2018-03-20T07:34:23.825Z,800.68
2018-03-20T07:35:23.819Z,800.68
2018-03-20T07:36:23.825Z,800.68
2018-03-20T07:37:23.826Z,800.69
2018-03-20T07:38:23.827Z,800.71
2018-03-20T07:39:23.835Z,800.73
2018-03-20T07:40:23.831Z,800.72
2018-03-20T07:41:23.839Z,800.70
2018-03-20T07:42:23.843Z,800.73
2018-03-20T07:43:23.838Z,800.73
2018-03-20T07:44:23.849Z,800.73
2018-03-20T07:45:23.844Z,800.73
2018-03-20T07:46:23.844Z,800.72
2018-03-20T07:47:23.853Z,800.70
2018-03-20T07:48:23.856Z,800.75
2018-03-20T07:49:23.851Z,800.76
2018-03-20T07:50:23.863Z,800.75
2018-03-20T07:51:23.856Z,800.78
2018-03-20T07:52:23.866Z,800.75
2018-03-20T07:53:23.861Z,800.76
2018-03-20T07:54:23.870Z,800.79
2018-03-20T07:55:23.872Z,800.76
2018-03-20T07:56:23.874Z,800.77
2018-03-20T07:57:23.872Z,800.84
2018-03-20T07:58:23.880Z,800.83
2018-03-20T07:59:23.877Z,800.83
2018-03-20T08:00:23.886Z,800.80
2018-03-20T08:01:23.883Z,800.84
2018-03-20T08:02:23.887Z,800.83
2018-03-20T08:03:23.888Z,800.84
2018-03-20T08:04:23.890Z,800.86
2018-03-20T08:05:23.894Z,800.90
2018-03-20T08:06:23.897Z,800.86
2018-03-20T08:07:23.904Z,800.89
2018-03-20T08:08:23.901Z,800.88
2018-03-20T08:09:23.906Z,800.86
2018-03-20T08:10:23.914Z,800.93
2018-03-20T08:11:23.911Z,800.95
2018-03-20T08:12:23.919Z,800.93
2018-03-20T08:13:23.921Z,800.92
2018-03-20T08:14:23.925Z,800.93
2018-03-20T08:15:23.928Z,800.94
2018-03-20T08:16:23.926Z,800.92
2018-03-20T08:17:23.928Z,800.90
2018-03-20T08:18:23.933Z,800.91
2018-03-20T08:19:23.977Z,800.98
2018-03-20T08:20:23.944Z,800.98
2018-03-20T08:21:23.946Z,800.99
2018-03-20T08:22:23.952Z,801.00
2018-03-20T08:23:23.946Z,800.97
2018-03-20T08:24:23.954Z,800.99
2018-03-20T08:25:23.958Z,801.05
2018-03-20T08:26:23.953Z,801.02
2018-03-20T08:27:23.962Z,801.08
2018-03-20T08:28:23.960Z,801.07
2018-03-20T08:29:23.964Z,801.05
2018-03-20T08:30:23.967Z,801.07
2018-03-20T08:31:23.968Z,801.03
2018-03-20T08:32:23.978Z,801.05
2018-03-20T08:33:23.974Z,801.10
2018-03-20T08:34:23.985Z,801.08
2018-03-20T08:35:23.981Z,801.09
2018-03-20T08:36:23.984Z,801.08
2018-03-20T08:37:23.987Z,801.10
2018-03-20T08:38:23.989Z,801.10
2018-03-20T08:39:23.997Z,801.08
2018-03-20T08:40:24.000Z,801.14
2018-03-20T08:41:24.004Z,801.12
2018-03-20T08:42:24.002Z,801.13
2018-03-20T08:43:24.005Z,801.16
2018-03-20T08:44:24.068Z,801.14
2018-03-20T08:45:24.016Z,801.13
2018-03-20T08:46:24.013Z,801.17
2018-03-20T08:47:24.016Z,801.18
2018-03-20T08:48:24.024Z,801.19
2018-03-20T08:49:24.026Z,801.18
2018-03-20T08:50:24.031Z,801.17
2018-03-20T08:51:24.035Z,801.17
2018-03-20T08:52:24.042Z,801.17
2018-03-20T08:53:24.041Z,801.20
2018-03-20T08:54:24.044Z,801.19
2018-03-20T08:55:24.047Z,801.21
2018-03-20T08:56:24.043Z,801.16
2018-03-20T08:57:24.047Z,801.21
2018-03-20T08:58:24.055Z,801.22
2018-03-20T08:59:24.057Z,801.22
2018-03-20T09:00:24.058Z,801.21
2018-03-20T09:01:24.067Z,801.26
2018-03-20T09:02:24.063Z,801.24
2018-03-20T09:03:24.066Z,801.21
2018-03-20T09:04:24.075Z,801.22
2018-03-20T09:05:24.075Z,801.25
2018-03-20T09:06:24.095Z,801.25
2018-03-20T09:07:24.079Z,801.21
2018-03-20T09:08:24.083Z,801.24
2018-03-20T09:09:24.089Z,801.25
2018-03-20T09:10:24.092Z,801.24
2018-03-20T09:11:24.100Z,801.27
2018-03-20T09:12:24.123Z,801.29
2018-03-20T09:13:24.104Z,801.25
2018-03-20T09:14:24.112Z,801.28
2018-03-20T09:15:24.116Z,801.29
2018-03-20T09:16:24.120Z,801.31
2018-03-20T09:17:24.124Z,801.32
2018-03-20T09:18:24.129Z,801.31
2018-03-20T09:19:24.133Z,801.34
2018-03-20T09:20:24.137Z,801.36
2018-03-20T09:21:24.141Z,801.39
2018-03-20T09:22:24.145Z,801.43
2018-03-20T09:23:24.150Z,801.43
2018-03-20T09:24:24.153Z,801.41
2018-03-20T09:25:24.157Z,801.42
2018-03-20T09:26:24.157Z,801.42
2018-03-20T09:27:24.167Z,801.48
2018-03-20T09:28:24.173Z,801.49
2018-03-20T09:29:24.176Z,801.48
2018-03-20T09:30:24.182Z,801.47
2018-03-20T09:31:24.180Z,801.52
2018-03-20T09:32:24.190Z,801.51
2018-03-20T09:33:24.197Z,801.56
2018-03-20T09:34:24.196Z,801.58
2018-03-20T09:35:24.206Z,801.50
2018-03-20T09:36:24.207Z,801.48
2018-03-20T09:37:24.213Z,801.51
2018-03-20T09:38:24.221Z,801.51
2018-03-20T09:39:24.228Z,801.56
2018-03-20T09:40:24.234Z,801.55
2018-03-20T09:41:24.234Z,801.59
2018-03-20T09:42:24.239Z,801.54
2018-03-20T09:43:24.257Z,801.54
2018-03-20T09:44:24.250Z,801.57
2018-03-20T09:45:24.260Z,801.56
2018-03-20T09:46:24.262Z,801.52
2018-03-20T09:47:24.272Z,801.59
2018-03-20T09:48:24.277Z,801.56
2018-03-20T09:49:24.282Z,801.55
2018-03-20T09:50:24.289Z,801.58
2018-03-20T09:51:24.295Z,801.61
2018-03-20T09:52:24.299Z,801.62
2018-03-20T09:53:24.305Z,801.65
2018-03-20T09:54:24.312Z,801.64
2018-03-20T09:55:24.315Z,801.68
2018-03-20T09:56:24.316Z,801.70
2018-03-20T09:57:24.325Z,801.65
2018-03-20T09:58:24.334Z,801.69
2018-03-20T09:59:24.340Z,801.72
2018-03-20T10:00:24.357Z,801.72
2018-03-20T10:01:24.351Z,801.69
2018-03-20T10:02:24.354Z,801.72
2018-03-20T10:03:24.365Z,801.73
2018-03-20T10:04:24.365Z,801.71
2018-03-20T10:05:24.373Z,801.74
2018-03-20T10:06:24.379Z,801.77
2018-03-20T10:07:24.389Z,801.77
2018-03-20T10:08:24.396Z,801.80
2018-03-20T10:09:24.406Z,801.83
2018-03-20T10:10:24.407Z,801.81
2018-03-20T10:11:24.417Z,801.82
2018-03-20T10:12:24.419Z,801.85
2018-03-20T10:13:24.431Z,801.83
2018-03-20T10:14:24.435Z,801.79
2018-03-20T10:15:24.445Z,801.82
2018-03-20T10:16:24.448Z,801.79
2018-03-20T10:17:24.461Z,801.82
2018-03-20T10:18:24.461Z,801.83
2018-03-20T10:19:24.494Z,801.84
2018-03-20T10:20:24.484Z,801.83
2018-03-20T10:21:24.498Z,801.88
2018-03-20T10:22:24.499Z,801.82
2018-03-20T10:23:24.499Z,801.90
2018-03-20T10:24:24.507Z,801.87
2018-03-20T10:25:24.520Z,801.90
2018-03-20T10:26:24.526Z,801.90
2018-03-20T10:27:24.533Z,801.94
2018-03-20T10:28:24.539Z,801.95
2018-03-20T10:29:24.548Z,801.93
2018-03-20T10:30:24.557Z,801.88
2018-03-20T10:31:24.557Z,801.90
2018-03-20T10:32:24.570Z,801.93
2018-03-20T10:33:24.576Z,801.94
2018-03-20T10:34:24.580Z,801.91
2018-03-20T10:35:24.617Z,801.92
2018-03-20T10:36:24.601Z,801.90
2018-03-20T10:37:24.604Z,801.94
2018-03-20T10:38:24.619Z,801.95
2018-03-20T10:39:24.620Z,801.95
2018-03-20T10:40:24.625Z,802.00
2018-03-20T10:41:24.634Z,801.97
2018-03-20T10:42:24.648Z,801.97
2018-03-20T10:43:24.664Z,802.00
2018-03-20T10:44:24.656Z,802.00
2018-03-20T10:45:24.671Z,801.99
2018-03-20T10:46:24.680Z,802.01
2018-03-20T10:47:24.689Z,802.01
2018-03-20T10:48:24.695Z,802.03
2018-03-20T10:49:24.704Z,801.99
2018-03-20T10:50:24.714Z,801.95
2018-03-20T10:51:24.719Z,802.01
2018-03-20T10:52:24.728Z,802.03
2018-03-20T10:53:24.739Z,802.04
2018-03-20T10:54:24.741Z,801.99
2018-03-20T10:55:24.756Z,802.03
2018-03-20T10:56:24.764Z,802.02
2018-03-20T10:57:24.768Z,802.00
2018-03-20T10:58:24.776Z,801.98
2018-03-20T10:59:24.788Z,802.00
2018-03-20T11:00:24.802Z,802.02
2018-03-20T11:01:24.806Z,801.96
2018-03-20T11:02:24.810Z,801.93
2018-03-20T11:03:24.817Z,801.97
2018-03-20T11:04:24.824Z,801.97
2018-03-20T11:05:24.833Z,801.95
2018-03-20T11:06:24.846Z,801.97
2018-03-20T11:07:24.853Z,801.95
2018-03-20T11:08:24.858Z,801.97
2018-03-20T11:09:24.866Z,802.01
2018-03-20T11:10:24.916Z,801.95
2018-03-20T11:11:24.881Z,801.90
2018-03-20T11:12:24.881Z,801.95
2018-03-20T11:13:24.896Z,801.98
2018-03-20T11:14:24.894Z,801.96
2018-03-20T11:15:24.908Z,801.99
2018-03-20T11:16:24.910Z,801.97
2018-03-20T11:17:24.921Z,802.01
2018-03-20T11:18:24.924Z,801.98
2018-03-20T11:19:24.936Z,801.96
2018-03-20T11:20:24.944Z,802.00
2018-03-20T11:21:24.945Z,801.98
2018-03-20T11:22:24.957Z,802.03
2018-03-20T11:23:24.963Z,801.99
2018-03-20T11:24:24.964Z,801.95
2018-03-20T11:25:24.972Z,801.96
2018-03-20T11:26:24.978Z,801.99
2018-03-20T11:27:24.989Z,801.96
2018-03-20T11:28:24.996Z,801.97
2018-03-20T11:29:25.002Z,801.99
2018-03-20T11:30:25.002Z,801.95
2018-03-20T11:31:25.015Z,801.97
2018-03-20T11:32:25.016Z,801.99
2018-03-20T11:33:25.023Z,801.98
2018-03-20T11:34:25.026Z,801.97
2018-03-20T11:35:25.033Z,801.96
2018-03-20T11:36:25.042Z,801.99
2018-03-20T11:37:25.051Z,802.00
2018-03-20T11:38:25.060Z,801.99
2018-03-20T11:39:25.062Z,802.01
2018-03-20T11:40:25.061Z,802.05
2018-03-20T11:41:25.073Z,802.06
2018-03-20T11:42:25.070Z,802.01
2018-03-20T11:43:25.080Z,802.04
2018-03-20T11:44:25.082Z,802.08
2018-03-20T11:45:25.088Z,802.10
2018-03-20T11:46:25.102Z,802.05
2018-03-20T11:47:25.103Z,802.09
2018-03-20T11:48:25.107Z,802.09
2018-03-20T11:49:25.145Z,802.12
2018-03-20T11:50:25.120Z,802.14
2018-03-20T11:51:25.118Z,802.11
2018-03-20T11:52:25.129Z,802.14
2018-03-20T11:53:25.129Z,802.19
2018-03-20T11:54:25.140Z,802.13
2018-03-20T11:55:25.156Z,802.19
2018-03-20T11:56:25.144Z,802.21
2018-03-20T11:57:25.157Z,802.18
2018-03-20T11:58:25.163Z,802.27
2018-03-20T11:59:25.167Z,802.23
2018-03-20T12:00:25.172Z,802.23
2018-03-20T12:01:25.171Z,802.23
2018-03-20T12:02:25.182Z,802.26
2018-03-20T12:03:25.181Z,802.21
2018-03-20T12:04:25.187Z,802.25
2018-03-20T12:05:25.202Z,802.27
2018-03-20T12:06:25.206Z,802.28
2018-03-20T12:07:25.201Z,802.27
2018-03-20T12:08:25.212Z,802.23
2018-03-20T12:09:25.212Z,802.22
2018-03-20T12:10:25.221Z,802.26
2018-03-20T12:11:25.225Z,802.27
2018-03-20T12:12:25.226Z,802.27
2018-03-20T12:13:25.231Z,802.27
2018-03-20T12:14:25.243Z,802.21
2018-03-20T12:15:25.242Z,802.21
2018-03-20T12:16:25.245Z,802.22
2018-03-20T12:17:25.250Z,802.23
2018-03-20T12:18:25.256Z,802.22
2018-03-20T12:19:25.269Z,802.24
2018-03-20T12:20:25.269Z,802.23
2018-03-20T12:21:25.271Z,802.22
2018-03-20T12:22:25.276Z,802.27
2018-03-20T12:23:25.281Z,802.23
2018-03-20T12:24:25.303Z,802.24
2018-03-20T12:25:25.292Z,802.27
2018-03-20T12:26:25.298Z,802.22
2018-03-20T12:27:25.303Z,802.27
2018-03-20T12:28:25.314Z,802.26